Time;durP1;ratioP1;P1;durP2;ratioP2;P2;SDS_P1;SDS_P2;PMS_P1;PMS_P2;Temp;Humidity;BMP_temperature;BMP_pressure;BME280_temperature;BME280_humidity;BME280_pressure;Samples;Min_cycle;Max_cycle;Signal;HPM_P1;HPM_P2
2022/01/05 00:00:34;;;;;;;1.57;1.07;;;7.00;99.90;;;;;;5011468;28;20214;-55
2022/01/05 00:03:00;;;;;;;1.03;0.90;;;6.90;99.90;;;;;;5013780;28;20474;-55
2022/01/05 00:05:26;;;;;;;2.60;1.17;;;6.50;99.90;;;;;;5013146;28;20949;-55
2022/01/05 00:07:51;;;;;;;0.83;0.83;;;6.90;99.90;;;;;;5007976;28;20186;-55
2022/01/05 00:10:17;;;;;;;0.90;0.80;;;7.00;99.90;;;;;;5010519;28;20424;-55
2022/01/05 00:12:43;;;;;;;0.70;0.70;;;6.70;99.90;;;;;;5013492;28;20214;-54
2022/01/05 00:15:09;;;;;;;1.97;0.70;;;6.70;99.90;;;;;;5012527;28;20190;-57
2022/01/05 00:17:35;;;;;;;1.35;0.93;;;6.80;99.90;;;;;;5010912;28;20639;-55
2022/01/05 00:20:02;;;;;;;0.90;0.80;;;6.80;99.90;;;;;;5011377;28;20289;-55
2022/01/05 00:22:28;;;;;;;0.70;0.70;;;6.90;99.90;;;;;;5011514;28;20193;-55
2022/01/05 00:24:53;;;;;;;0.80;0.60;;;7.00;99.90;;;;;;5013585;28;20183;-55
2022/01/05 00:27:19;;;;;;;0.70;0.60;;;6.70;99.90;;;;;;5008594;28;20211;-54
2022/01/05 00:29:45;;;;;;;2.50;0.70;;;6.60;99.90;;;;;;5008940;28;20294;-55
2022/01/05 00:32:11;;;;;;;0.80;0.67;;;6.80;99.90;;;;;;5010873;28;20183;-55
2022/01/05 00:34:36;;;;;;;0.70;0.70;;;6.20;99.90;;;;;;5003203;28;20441;-54
2022/01/05 00:37:03;;;;;;;0.80;0.70;;;6.70;99.90;;;;;;5004028;28;20452;-55
2022/01/05 00:39:29;;;;;;;0.82;0.75;;;6.80;99.90;;;;;;5004985;28;20465;-54
2022/01/05 00:41:54;;;;;;;0.80;0.70;;;6.90;99.90;;;;;;5011204;28;20190;-54
2022/01/05 00:44:20;;;;;;;1.10;0.63;;;6.70;99.90;;;;;;5002477;28;20222;-54
2022/01/05 00:46:46;;;;;;;0.87;0.70;;;6.90;99.90;;;;;;5008313;28;20222;-54
2022/01/05 00:49:13;;;;;;;0.60;0.50;;;6.80;99.90;;;;;;5013441;28;20700;-54
2022/01/05 00:51:39;;;;;;;0.60;0.50;;;7.00;99.90;;;;;;5012262;28;20194;-54
2022/01/05 00:54:05;;;;;;;1.00;0.63;;;6.70;99.90;;;;;;5011722;28;20214;-55
2022/01/05 00:56:31;;;;;;;1.45;0.63;;;6.90;99.90;;;;;;5006119;28;20224;-54
2022/01/05 00:58:57;;;;;;;2.20;0.70;;;6.50;99.90;;;;;;5009601;28;20195;-55
2022/01/05 01:01:23;;;;;;;0.60;0.60;;;6.60;99.90;;;;;;5010393;28;20191;-55
2022/01/05 01:03:49;;;;;;;0.73;0.73;;;6.70;99.90;;;;;;5011765;28;20245;-54
2022/01/05 01:06:15;;;;;;;0.70;0.60;;;6.70;99.90;;;;;;5012800;28;20213;-54
2022/01/05 01:08:40;;;;;;;0.80;0.60;;;6.10;99.90;;;;;;5014343;28;20206;-54
2022/01/05 01:11:06;;;;;;;0.70;0.70;;;6.50;99.90;;;;;;5012231;28;20437;-54
2022/01/05 01:13:32;;;;;;;0.60;0.50;;;6.20;99.90;;;;;;5009642;28;20191;-53
2022/01/05 01:15:58;;;;;;;0.83;0.60;;;6.80;99.90;;;;;;5007208;28;20191;-54
2022/01/05 01:18:24;;;;;;;0.83;0.63;;;6.80;99.90;;;;;;5012191;28;20656;-55
2022/01/05 01:20:50;;;;;;;0.80;0.60;;;6.80;99.90;;;;;;5011771;28;20821;-54
2022/01/05 01:23:22;;;;;;;0.88;0.50;;;6.60;99.90;;;;;;5010051;28;20433;-54
2022/01/05 01:25:52;;;;;;;0.70;0.60;;;6.80;99.90;;;;;;5010042;28;20691;-54
2022/01/05 01:28:19;;;;;;;0.70;0.55;;;6.70;99.90;;;;;;5011495;28;20179;-54
2022/01/05 01:30:45;;;;;;;0.60;0.50;;;6.80;99.90;;;;;;5006570;28;20481;-55
2022/01/05 01:33:10;;;;;;;0.70;0.53;;;6.80;99.90;;;;;;5012001;28;20183;-54
2022/01/05 01:35:36;;;;;;;1.20;0.60;;;6.60;99.90;;;;;;5008015;28;20793;-54
2022/01/05 01:38:01;;;;;;;0.60;0.50;;;6.90;99.90;;;;;;5010291;28;20550;-55
2022/01/05 01:40:27;;;;;;;0.60;0.40;;;6.30;99.90;;;;;;5010153;28;20202;-55
2022/01/05 01:42:53;;;;;;;1.00;0.60;;;6.80;99.90;;;;;;5011651;28;20183;-55
2022/01/05 01:45:19;;;;;;;0.60;0.50;;;6.90;99.90;;;;;;5006954;28;20417;-55
2022/01/05 01:47:46;;;;;;;0.60;0.50;;;6.70;99.90;;;;;;5011455;28;20218;-55
2022/01/05 01:50:12;;;;;;;0.55;0.50;;;6.90;99.90;;;;;;5011385;28;20191;-55
2022/01/05 01:52:38;;;;;;;0.60;0.57;;;6.80;99.90;;;;;;5011586;28;20241;-55
2022/01/05 01:55:04;;;;;;;0.60;0.50;;;6.70;99.90;;;;;;5008180;28;20649;-55
2022/01/05 01:57:34;;;;;;;0.80;0.50;;;6.90;99.90;;;;;;5010099;28;20437;-55
2022/01/05 02:00:00;;;;;;;0.70;0.50;;;7.00;99.90;;;;;;5006255;28;20257;-55
2022/01/05 02:02:26;;;;;;;0.93;0.60;;;6.80;99.90;;;;;;5008166;28;20979;-55
2022/01/05 02:04:52;;;;;;;0.57;0.50;;;7.10;99.90;;;;;;5006644;28;20187;-55
2022/01/05 02:07:18;;;;;;;0.60;0.50;;;7.10;99.90;;;;;;5011359;28;20474;-55
2022/01/05 02:09:44;;;;;;;0.60;0.47;;;7.10;99.90;;;;;;5009636;28;20812;-54
2022/01/05 02:12:10;;;;;;;0.50;0.50;;;6.90;99.90;;;;;;5009722;28;20189;-55
2022/01/05 02:14:36;;;;;;;0.60;0.60;;;7.10;99.90;;;;;;5005622;28;20453;-54
2022/01/05 02:17:08;;;;;;;0.60;0.50;;;7.30;99.90;;;;;;5010166;28;20602;-54
2022/01/05 02:19:33;;;;;;;0.80;0.50;;;7.20;99.90;;;;;;5010735;28;20214;-55
2022/01/05 02:21:59;;;;;;;1.03;0.60;;;7.50;99.90;;;;;;5008712;28;20644;-55
2022/01/05 02:24:25;;;;;;;0.50;0.50;;;7.10;99.90;;;;;;5009015;28;20636;-55
2022/01/05 02:26:50;;;;;;;0.60;0.60;;;7.20;99.90;;;;;;5010606;28;20203;-54
2022/01/05 02:29:16;;;;;;;0.70;0.50;;;7.30;99.90;;;;;;5004555;28;20191;-55
2022/01/05 02:31:41;;;;;;;0.53;0.40;;;7.20;99.90;;;;;;5008115;28;20594;-54
2022/01/05 02:34:07;;;;;;;0.60;0.50;;;7.10;99.90;;;;;;5009777;28;20182;-55
2022/01/05 02:36:33;;;;;;;1.27;1.17;;;7.40;99.90;;;;;;5006431;28;20183;-54
2022/01/05 02:38:59;;;;;;;1.33;0.70;;;7.00;99.90;;;;;;5008434;28;20199;-55
2022/01/05 02:41:24;;;;;;;0.80;0.80;;;7.00;99.90;;;;;;5010858;28;20245;-55
2022/01/05 02:43:50;;;;;;;0.70;0.60;;;6.70;99.90;;;;;;5009903;28;20183;-54
2022/01/05 02:46:21;;;;;;;0.63;0.60;;;7.20;99.90;;;;;;5010811;28;20672;-54
2022/01/05 02:48:52;;;;;;;1.17;0.60;;;7.20;99.90;;;;;;5004484;28;20203;-55
2022/01/05 02:51:18;;;;;;;0.70;0.70;;;7.00;99.90;;;;;;5007693;28;20202;-54
2022/01/05 02:53:44;;;;;;;1.67;0.88;;;7.20;99.90;;;;;;5008512;28;20183;-55
2022/01/05 02:56:10;;;;;;;0.90;0.70;;;7.00;99.90;;;;;;5007407;28;20655;-55
2022/01/05 02:58:36;;;;;;;1.30;0.57;;;7.20;99.90;;;;;;5010961;28;20230;-55
2022/01/05 03:01:02;;;;;;;1.10;0.60;;;7.00;99.90;;;;;;5004835;28;20190;-55
2022/01/05 03:03:28;;;;;;;1.15;0.57;;;6.90;99.90;;;;;;5010152;28;20702;-54
2022/01/05 03:05:54;;;;;;;0.77;0.60;;;7.10;99.90;;;;;;5007396;28;20210;-54
2022/01/05 03:08:20;;;;;;;0.97;0.80;;;6.80;99.90;;;;;;5005273;28;20183;-55
2022/01/05 03:10:46;;;;;;;0.80;0.60;;;6.90;99.90;;;;;;5006565;28;20203;-55
2022/01/05 03:13:11;;;;;;;1.43;0.70;;;6.70;99.90;;;;;;5009154;28;20176;-55
2022/01/05 03:15:37;;;;;;;0.83;0.70;;;6.80;99.90;;;;;;5009536;28;20446;-55
2022/01/05 03:18:04;;;;;;;0.70;0.63;;;6.80;99.90;;;;;;5007663;28;20269;-55
2022/01/05 03:20:31;;;;;;;0.70;0.60;;;6.70;99.90;;;;;;5010178;28;20462;-54
2022/01/05 03:23:00;;;;;;;0.85;0.60;;;6.80;99.90;;;;;;5008916;28;20174;-54
2022/01/05 03:25:26;;;;;;;0.73;0.73;;;6.80;99.90;;;;;;5007036;28;20233;-55
2022/01/05 03:27:53;;;;;;;0.70;0.57;;;6.30;99.90;;;;;;5002043;28;20182;-55
2022/01/05 03:30:25;;;;;;;0.80;0.60;;;6.70;99.90;;;;;;5003834;28;20535;-54
2022/01/05 03:35:29;;;;;;;0.68;0.50;;;6.90;99.90;;;;;;5004480;28;20229;-55
2022/01/05 03:37:55;;;;;;;0.60;0.60;;;6.80;99.90;;;;;;5007848;28;20191;-54
2022/01/05 03:40:21;;;;;;;1.08;0.50;;;6.80;99.90;;;;;;5002995;28;20289;-54
2022/01/05 03:42:46;;;;;;;0.60;0.50;;;6.80;99.90;;;;;;5010298;28;20266;-54
2022/01/05 03:45:12;;;;;;;0.60;0.50;;;6.50;99.90;;;;;;5002587;28;20408;-55
2022/01/05 03:47:38;;;;;;;0.80;0.50;;;6.90;99.90;;;;;;5008911;28;20249;-55
2022/01/05 03:50:04;;;;;;;0.60;0.40;;;6.50;99.90;;;;;;5011808;28;20199;-54
2022/01/05 03:52:30;;;;;;;0.60;0.50;;;6.70;99.90;;;;;;5009956;28;20609;-54
2022/01/05 03:54:56;;;;;;;0.60;0.50;;;6.60;99.90;;;;;;5006229;28;20254;-54
2022/01/05 03:57:22;;;;;;;0.60;0.40;;;6.50;99.90;;;;;;5004898;28;20412;-54
2022/01/05 03:59:47;;;;;;;0.87;0.50;;;6.60;99.90;;;;;;5008484;28;20249;-54
2022/01/05 04:02:13;;;;;;;0.70;0.50;;;6.90;99.90;;;;;;5004841;28;20183;-55
2022/01/05 04:04:38;;;;;;;0.63;0.50;;;6.90;99.90;;;;;;5009134;28;20198;-55
2022/01/05 04:07:04;;;;;;;0.60;0.50;;;6.70;99.90;;;;;;5010128;28;20211;-55
2022/01/05 04:09:30;;;;;;;0.50;0.40;;;6.80;99.90;;;;;;5004400;28;20234;-54
2022/01/05 04:11:55;;;;;;;0.63;0.50;;;6.60;99.90;;;;;;5009485;28;20174;-55
2022/01/05 04:14:21;;;;;;;0.60;0.40;;;6.60;99.90;;;;;;5008301;28;20187;-55
2022/01/05 04:16:47;;;;;;;0.60;0.50;;;6.70;99.90;;;;;;5009645;28;20558;-54
2022/01/05 04:19:12;;;;;;;0.70;0.43;;;6.70;99.90;;;;;;5009327;28;20213;-55
2022/01/05 04:21:38;;;;;;;0.60;0.50;;;6.80;99.90;;;;;;5008336;28;20598;-55
2022/01/05 04:24:04;;;;;;;0.60;0.50;;;6.70;99.90;;;;;;5009778;28;20194;-54
2022/01/05 04:26:30;;;;;;;0.75;0.60;;;6.60;99.90;;;;;;5008389;28;20577;-54
2022/01/05 04:28:55;;;;;;;0.60;0.50;;;6.70;99.90;;;;;;5009645;28;20195;-54
2022/01/05 04:31:21;;;;;;;0.60;0.50;;;6.70;99.90;;;;;;5008923;28;20186;-54
2022/01/05 04:33:47;;;;;;;0.60;0.43;;;6.80;99.90;;;;;;5005959;28;20175;-54
2022/01/05 04:36:12;;;;;;;1.47;0.50;;;7.20;99.90;;;;;;5009282;28;20210;-55
2022/01/05 04:38:38;;;;;;;0.90;0.70;;;7.00;99.90;;;;;;5007323;28;20256;-54
2022/01/05 04:41:04;;;;;;;0.63;0.60;;;6.90;99.90;;;;;;5007525;28;20465;-54
2022/01/05 04:43:30;;;;;;;3.57;0.70;;;6.90;99.90;;;;;;5008386;28;20191;-55
2022/01/05 04:45:56;;;;;;;1.23;0.60;;;6.70;99.90;;;;;;5008625;28;20211;-55
2022/01/05 04:48:21;;;;;;;0.60;0.50;;;6.90;99.90;;;;;;5009377;28;20512;-54
2022/01/05 04:50:47;;;;;;;0.60;0.50;;;6.80;99.90;;;;;;5013062;28;20195;-55
2022/01/05 04:53:13;;;;;;;0.70;0.60;;;7.00;99.90;;;;;;5013990;28;20217;-55
2022/01/05 04:55:43;;;;;;;0.70;0.50;;;6.70;99.90;;;;;;5011189;28;20193;-55
2022/01/05 04:58:09;;;;;;;0.60;0.57;;;6.80;99.90;;;;;;5012720;28;20870;-55
2022/01/05 05:00:35;;;;;;;0.60;0.50;;;6.60;99.90;;;;;;5006079;28;20261;-55
2022/01/05 05:03:01;;;;;;;0.63;0.50;;;6.80;99.90;;;;;;5012462;28;20430;-54
2022/01/05 05:05:27;;;;;;;0.60;0.50;;;6.60;99.90;;;;;;5012365;28;20652;-55
2022/01/05 05:07:53;;;;;;;0.60;0.50;;;6.20;99.90;;;;;;5009045;28;20505;-55
2022/01/05 05:10:18;;;;;;;1.17;0.63;;;6.70;99.90;;;;;;5011925;28;20706;-55
2022/01/05 05:12:44;;;;;;;0.70;0.60;;;6.50;99.90;;;;;;5012629;28;20441;-54
2022/01/05 05:15:10;;;;;;;0.80;0.73;;;6.70;99.90;;;;;;5010269;28;20189;-54
2022/01/05 05:17:36;;;;;;;1.20;1.00;;;6.70;99.90;;;;;;5009711;28;20733;-55
2022/01/05 05:20:03;;;;;;;1.00;0.60;;;6.60;99.90;;;;;;5011885;28;20714;-55
2022/01/05 05:22:28;;;;;;;0.70;0.60;;;6.70;99.90;;;;;;5008619;28;20934;-54
2022/01/05 05:24:54;;;;;;;0.70;0.60;;;6.60;99.90;;;;;;5012079;28;20389;-54
2022/01/05 05:27:19;;;;;;;0.80;0.70;;;6.80;99.90;;;;;;5010346;28;20222;-55
2022/01/05 05:29:45;;;;;;;0.70;0.70;;;7.00;99.90;;;;;;5007366;28;20912;-55
2022/01/05 05:32:10;;;;;;;0.80;0.80;;;6.20;99.90;;;;;;5009063;28;20182;-55
2022/01/05 05:34:36;;;;;;;1.23;1.17;;;6.20;99.90;;;;;;5005493;28;20188;-54
2022/01/05 05:37:02;;;;;;;1.30;0.90;;;5.70;99.90;;;;;;5010844;28;20218;-54
2022/01/05 05:39:27;;;;;;;0.97;0.77;;;5.70;99.90;;;;;;5007980;28;20592;-54
2022/01/05 05:41:53;;;;;;;0.87;0.80;;;5.50;99.90;;;;;;5011582;28;20451;-55
2022/01/05 05:44:19;;;;;;;1.00;0.90;;;5.30;99.90;;;;;;5007310;28;20219;-55
2022/01/05 05:46:44;;;;;;;6.47;3.80;;;4.80;99.90;;;;;;5005878;28;20273;-55
2022/01/05 05:49:10;;;;;;;2.30;2.10;;;4.80;99.90;;;;;;5011882;28;20211;-54
2022/01/05 05:51:36;;;;;;;1.20;1.10;;;5.00;99.90;;;;;;5010567;28;20210;-54
2022/01/05 05:54:03;;;;;;;0.80;0.70;;;4.70;99.90;;;;;;5005863;28;20274;-57
2022/01/05 05:56:29;;;;;;;1.20;1.10;;;4.90;99.90;;;;;;5005395;28;20522;-54
2022/01/05 05:58:55;;;;;;;1.30;1.10;;;4.70;99.90;;;;;;5009063;28;20272;-54
2022/01/05 06:01:20;;;;;;;1.23;1.13;;;4.20;99.90;;;;;;5011879;28;20189;-54
2022/01/05 06:03:46;;;;;;;1.40;1.30;;;4.30;99.90;;;;;;5010723;28;20696;-54
2022/01/05 06:06:11;;;;;;;1.70;1.10;;;4.00;99.90;;;;;;5008065;28;20577;-55
2022/01/05 06:08:39;;;;;;;1.33;1.13;;;4.20;99.90;;;;;;5002734;28;20213;-55
2022/01/05 06:11:06;;;;;;;1.30;1.10;;;4.10;99.90;;;;;;5013462;28;20179;-55
2022/01/05 06:13:32;;;;;;;1.90;1.20;;;4.20;99.90;;;;;;5004748;28;20184;-55
2022/01/05 06:15:57;;;;;;;1.20;1.10;;;4.30;99.90;;;;;;5002299;28;20181;-55
2022/01/05 06:18:23;;;;;;;1.20;1.07;;;3.80;99.90;;;;;;5005619;28;20189;-55
2022/01/05 06:20:49;;;;;;;0.87;0.87;;;3.80;99.90;;;;;;5009838;28;20656;-54
2022/01/05 06:23:14;;;;;;;1.13;1.03;;;4.40;99.90;;;;;;5005775;28;20656;-56
2022/01/05 06:25:40;;;;;;;2.20;1.10;;;4.70;99.90;;;;;;5007604;28;20184;-55
2022/01/05 06:28:11;;;;;;;1.10;1.00;;;4.80;99.90;;;;;;5002506;28;20245;-55
2022/01/05 06:30:38;;;;;;;0.80;0.80;;;4.80;99.90;;;;;;5007198;28;20201;-55
2022/01/05 06:33:04;;;;;;;1.13;1.00;;;4.50;99.90;;;;;;5009837;28;20192;-55
2022/01/05 06:35:30;;;;;;;2.27;1.43;;;4.50;99.90;;;;;;5005159;28;20194;-56
2022/01/05 06:37:55;;;;;;;1.33;1.10;;;4.40;99.90;;;;;;5007079;28;20834;-56
2022/01/05 06:40:22;;;;;;;2.80;1.30;;;4.70;99.90;;;;;;5015286;28;20211;-55
2022/01/05 06:42:47;;;;;;;1.35;1.25;;;5.00;99.90;;;;;;5008612;28;20281;-55
2022/01/05 06:45:13;;;;;;;1.10;1.00;;;5.20;99.90;;;;;;5003084;28;20642;-54
2022/01/05 06:47:39;;;;;;;1.03;0.90;;;4.60;99.90;;;;;;5010355;28;20617;-55
2022/01/05 06:50:05;;;;;;;3.47;1.47;;;5.00;99.90;;;;;;5010186;28;20199;-54
2022/01/05 06:52:31;;;;;;;1.27;1.17;;;4.90;99.90;;;;;;5005215;28;20195;-57
2022/01/05 06:54:56;;;;;;;1.00;1.00;;;4.70;99.90;;;;;;5002551;28;20231;-56
2022/01/05 06:57:22;;;;;;;1.53;1.43;;;4.70;99.90;;;;;;5008664;28;20492;-53
2022/01/05 06:59:48;;;;;;;1.47;1.20;;;4.80;99.90;;;;;;5006215;28;20265;-54
2022/01/05 07:02:13;;;;;;;1.07;1.00;;;4.80;99.90;;;;;;5007836;28;20192;-55
2022/01/05 07:04:39;;;;;;;1.30;1.07;;;5.10;99.90;;;;;;5007210;28;20187;-54
2022/01/05 07:07:05;;;;;;;1.23;1.10;;;4.80;99.90;;;;;;5005114;28;20220;-55
2022/01/05 07:09:30;;;;;;;1.43;1.13;;;4.90;99.90;;;;;;5001058;28;20688;-56
2022/01/05 07:11:56;;;;;;;2.13;1.30;;;4.80;99.90;;;;;;5006311;28;21002;-54
2022/01/05 07:14:23;;;;;;;6.80;4.00;;;4.80;99.90;;;;;;5006462;28;20189;-56
2022/01/05 07:16:50;;;;;;;6.43;3.25;;;4.80;99.90;;;;;;5006344;28;20600;-53
2022/01/05 07:19:16;;;;;;;2.50;1.50;;;4.80;99.90;;;;;;5001052;28;20207;-52
2022/01/05 07:21:41;;;;;;;4.17;2.70;;;4.60;99.90;;;;;;5005302;28;20190;-56
2022/01/05 07:24:11;;;;;;;1.70;1.60;;;4.60;99.90;;;;;;5004432;28;20208;-54
2022/01/05 07:26:39;;;;;;;1.42;1.33;;;4.70;99.90;;;;;;5008507;28;20241;-56
2022/01/05 07:29:05;;;;;;;1.70;1.60;;;4.90;99.90;;;;;;5003472;28;20907;-55
2022/01/05 07:31:30;;;;;;;1.45;1.25;;;4.70;99.90;;;;;;5010922;28;20535;-55
2022/01/05 07:33:56;;;;;;;1.97;1.20;;;4.70;99.90;;;;;;5008333;28;20185;-55
2022/01/05 07:36:22;;;;;;;1.77;1.50;;;4.90;99.90;;;;;;5010825;28;20228;-55
2022/01/05 07:38:47;;;;;;;2.30;1.70;;;4.30;99.90;;;;;;5005985;28;20255;-56
2022/01/05 07:41:13;;;;;;;2.03;1.70;;;4.60;99.90;;;;;;4992867;28;20193;-55
2022/01/05 07:43:39;;;;;;;1.97;1.60;;;4.90;99.90;;;;;;5006513;28;20192;-56
2022/01/05 07:46:04;;;;;;;5.77;2.30;;;4.90;99.90;;;;;;5003266;28;20217;-55
2022/01/05 07:48:30;;;;;;;1.70;1.60;;;4.80;99.90;;;;;;5010037;28;20194;-52
2022/01/05 07:50:56;;;;;;;2.50;1.70;;;4.90;99.90;;;;;;5009804;28;20609;-53
2022/01/05 07:53:21;;;;;;;3.87;2.23;;;4.80;99.90;;;;;;5009175;28;20212;-51
2022/01/05 07:55:47;;;;;;;3.40;1.53;;;5.20;99.90;;;;;;4997764;28;20561;-52
2022/01/05 07:58:13;;;;;;;1.80;1.48;;;4.70;99.90;;;;;;5010171;28;20492;-53
2022/01/05 08:00:39;;;;;;;2.43;2.23;;;4.60;99.90;;;;;;5002907;28;20191;-52
2022/01/05 08:03:05;;;;;;;2.80;2.10;;;4.80;99.90;;;;;;5010183;28;20878;-53
2022/01/05 08:05:31;;;;;;;3.57;2.43;;;4.60;99.90;;;;;;5008456;28;20480;-52
2022/01/05 08:07:57;;;;;;;4.57;2.40;;;4.50;99.90;;;;;;5005453;28;20213;-54
2022/01/05 08:10:22;;;;;;;3.60;2.20;;;4.70;99.90;;;;;;5009745;28;20461;-54
2022/01/05 08:12:48;;;;;;;3.70;2.20;;;4.60;99.90;;;;;;4998966;28;20445;-53
2022/01/05 08:15:15;;;;;;;3.90;2.20;;;4.70;99.90;;;;;;5006543;28;20517;-53
2022/01/05 08:17:44;;;;;;;5.05;2.30;;;4.60;99.90;;;;;;5009901;28;20954;-52
2022/01/05 08:20:11;;;;;;;2.95;2.22;;;4.50;99.90;;;;;;5011853;28;20680;-52
2022/01/05 08:22:45;;;;;;;10.23;2.42;;;4.70;99.90;;;;;;4999072;28;20195;-53
2022/01/05 08:25:15;;;;;;;3.67;2.00;;;4.60;99.90;;;;;;5001230;28;20578;-52
2022/01/05 08:27:46;;;;;;;5.30;3.17;;;4.50;99.90;;;;;;5012757;28;20215;-53
2022/01/05 08:30:23;;;;;;;3.50;2.30;;;4.50;99.90;;;;;;5010372;28;20203;-52
2022/01/05 08:32:51;;;;;;;3.00;2.30;;;4.50;99.90;;;;;;5003174;28;20198;-52
2022/01/05 08:35:19;;;;;;;2.25;2.05;;;4.50;99.90;;;;;;5003941;28;20184;-52
2022/01/05 08:37:46;;;;;;;2.78;2.58;;;4.50;99.90;;;;;;5006551;28;20198;-52
2022/01/05 08:40:20;;;;;;;2.50;2.30;;;4.40;99.90;;;;;;5008693;28;20220;-54
2022/01/05 08:42:47;;;;;;;4.90;2.55;;;4.50;99.90;;;;;;5006417;28;20537;-53
2022/01/05 08:45:14;;;;;;;5.55;2.65;;;4.60;99.90;;;;;;5006289;28;20199;-53
2022/01/05 08:47:41;;;;;;;3.97;2.28;;;4.60;99.90;;;;;;5012498;28;20212;-53
2022/01/05 08:50:07;;;;;;;2.85;2.38;;;4.50;99.90;;;;;;5009026;28;20208;-53
2022/01/05 08:52:32;;;;;;;4.03;3.00;;;4.50;99.90;;;;;;5006094;28;20659;-52
2022/01/05 08:54:58;;;;;;;3.50;2.00;;;4.50;99.90;;;;;;5008190;28;20195;-52
2022/01/05 08:57:24;;;;;;;3.73;1.97;;;4.60;99.90;;;;;;5012039;28;20442;-58
2022/01/05 08:59:51;;;;;;;4.77;2.30;;;4.50;99.90;;;;;;5010210;28;20210;-55
2022/01/05 09:02:18;;;;;;;2.25;2.03;;;4.20;99.90;;;;;;5009522;28;20192;-55
2022/01/05 09:04:44;;;;;;;3.13;2.10;;;3.90;99.90;;;;;;5010065;28;20188;-55
2022/01/05 09:07:10;;;;;;;2.50;1.60;;;4.30;99.90;;;;;;5004326;28;20582;-54
2022/01/05 09:09:36;;;;;;;2.70;2.30;;;4.20;99.90;;;;;;5011050;28;20484;-53
2022/01/05 09:12:03;;;;;;;2.47;2.05;;;4.40;99.90;;;;;;5000651;28;20183;-53
2022/01/05 09:14:28;;;;;;;3.03;2.10;;;4.40;99.90;;;;;;5009046;28;20191;-55
2022/01/05 09:16:54;;;;;;;3.30;2.10;;;4.40;99.90;;;;;;5005047;28;20290;-56
2022/01/05 09:19:20;;;;;;;5.40;3.67;;;4.30;99.90;;;;;;5003874;28;20422;-54
2022/01/05 09:21:49;;;;;;;3.60;2.90;;;4.20;99.90;;;;;;5010966;28;20940;-54
2022/01/05 09:24:17;;;;;;;5.95;2.58;;;4.40;99.90;;;;;;5011388;28;20203;-53
2022/01/05 09:26:43;;;;;;;3.22;1.80;;;4.70;99.90;;;;;;5011715;28;20248;-54
2022/01/05 09:29:09;;;;;;;3.28;2.05;;;4.70;99.90;;;;;;5002614;28;20216;-53
2022/01/05 09:31:35;;;;;;;2.33;1.92;;;4.80;99.90;;;;;;5010209;28;20271;-54
2022/01/05 09:34:01;;;;;;;2.20;2.00;;;4.80;99.90;;;;;;5010951;28;20375;-55
2022/01/05 09:36:37;;;;;;;3.27;2.90;;;4.70;99.90;;;;;;5012390;28;20277;-55
2022/01/05 09:41:58;;;;;;;3.15;2.58;;;5.00;99.90;;;;;;5009477;28;20333;-55
2022/01/05 09:44:30;;;;;;;3.03;2.08;;;4.70;99.90;;;;;;4999015;28;20537;-56
2022/01/05 09:47:10;;;;;;;5.13;2.95;;;5.00;99.90;;;;;;5006447;28;20240;-55
2022/01/05 09:49:38;;;;;;;3.55;2.10;;;4.60;99.90;;;;;;5008002;28;20218;-54
2022/01/05 09:52:10;;;;;;;2.20;2.00;;;4.60;99.90;;;;;;5006166;28;20242;-54
2022/01/05 09:54:42;;;;;;;3.53;2.45;;;4.80;99.90;;;;;;5002134;28;20241;-53
2022/01/05 09:57:08;;;;;;;4.40;2.75;;;4.90;99.90;;;;;;5008115;28;20959;-54
2022/01/05 09:59:35;;;;;;;2.92;1.95;;;5.00;99.90;;;;;;5005355;28;20221;-53
2022/01/05 10:02:03;;;;;;;4.70;2.10;;;5.20;99.90;;;;;;5010207;28;20191;-54
2022/01/05 10:04:29;;;;;;;2.97;2.00;;;5.00;99.90;;;;;;5011744;28;20193;-53
2022/01/05 10:06:55;;;;;;;4.32;2.15;;;4.60;99.90;;;;;;5006666;28;20261;-53
2022/01/05 10:09:21;;;;;;;4.40;2.20;;;4.40;99.90;;;;;;5006740;28;20695;-54
2022/01/05 10:11:47;;;;;;;5.53;2.63;;;4.90;99.90;;;;;;4997701;28;20348;-56
2022/01/05 10:14:13;;;;;;;6.03;4.20;;;5.10;99.90;;;;;;5002608;28;20467;-56
2022/01/05 10:16:40;;;;;;;3.45;1.77;;;4.70;99.90;;;;;;5005955;28;20463;-55
2022/01/05 10:19:08;;;;;;;3.03;1.95;;;4.70;99.70;;;;;;5009296;28;20258;-55
2022/01/05 10:21:39;;;;;;;2.65;1.50;;;3.90;99.90;;;;;;5011202;28;20181;-56
2022/01/05 10:24:05;;;;;;;5.55;2.00;;;4.60;99.90;;;;;;5009574;28;20183;-55
2022/01/05 10:26:36;;;;;;;3.50;1.75;;;4.80;99.90;;;;;;5006256;28;20300;-56
2022/01/05 10:29:16;;;;;;;2.50;1.90;;;4.10;99.90;;;;;;5008655;28;20200;-57
2022/01/05 10:31:44;;;;;;;3.88;2.13;;;4.20;99.80;;;;;;5009053;28;20192;-56
2022/01/05 10:34:29;;;;;;;7.22;3.47;;;4.20;99.50;;;;;;5008170;28;20295;-56
2022/01/05 10:36:58;;;;;;;3.63;1.83;;;4.30;99.90;;;;;;4999221;28;20723;-55
2022/01/05 10:39:42;;;;;;;3.10;1.70;;;5.10;99.10;;;;;;5010262;28;20200;-56
2022/01/05 10:42:13;;;;;;;2.83;2.15;;;5.50;97.30;;;;;;5006027;28;20644;-56
2022/01/05 10:44:46;;;;;;;2.95;1.85;;;5.60;96.70;;;;;;5005057;28;20355;-56
2022/01/05 10:47:15;;;;;;;3.80;2.13;;;6.20;96.90;;;;;;5003880;28;20202;-57
2022/01/05 10:49:41;;;;;;;3.38;2.25;;;6.30;95.30;;;;;;5009921;28;20210;-56
2022/01/05 10:52:21;;;;;;;2.80;2.28;;;7.10;94.80;;;;;;5009020;28;20238;-56
2022/01/05 10:54:48;;;;;;;2.88;1.83;;;8.20;93.00;;;;;;5007028;28;20183;-57
2022/01/05 10:57:15;;;;;;;3.95;2.03;;;8.70;90.30;;;;;;5004197;28;20183;-57
2022/01/05 10:59:43;;;;;;;3.45;1.98;;;9.50;89.80;;;;;;5000404;28;20231;-56
2022/01/05 11:02:30;;;;;;;2.28;1.63;;;9.10;86.30;;;;;;5002897;28;20266;-57
2022/01/05 11:05:16;;;;;;;4.50;4.03;;;9.60;86.50;;;;;;5000194;28;20230;-55
2022/01/05 11:07:46;;;;;;;5.65;2.95;;;9.70;87.20;;;;;;5008388;28;20640;-55
2022/01/05 11:10:15;;;;;;;4.00;2.10;;;9.10;85.30;;;;;;5009868;28;20270;-54
2022/01/05 11:12:54;;;;;;;1.92;1.63;;;9.20;86.60;;;;;;5008999;28;20237;-54
2022/01/05 11:15:27;;;;;;;4.90;1.80;;;8.90;87.90;;;;;;5003331;28;20707;-54
2022/01/05 11:18:18;;;;;;;3.45;1.67;;;8.00;84.50;;;;;;4995879;28;20184;-56
2022/01/05 11:20:55;;;;;;;3.90;1.65;;;8.00;87.20;;;;;;5012449;28;20221;-53
2022/01/05 11:23:23;;;;;;;5.82;1.70;;;7.90;87.80;;;;;;5003668;28;20205;-53
2022/01/05 11:25:51;;;;;;;3.75;2.40;;;7.70;88.80;;;;;;5006749;28;20282;-52
2022/01/05 11:28:19;;;;;;;3.05;1.85;;;7.50;88.50;;;;;;5013851;28;20183;-52
2022/01/05 11:30:46;;;;;;;3.92;1.92;;;7.30;89.60;;;;;;5003202;28;20183;-55
2022/01/05 11:33:12;;;;;;;4.03;1.85;;;7.00;90.10;;;;;;5010015;28;20179;-53
2022/01/05 11:35:39;;;;;;;4.47;2.35;;;6.90;90.30;;;;;;5002816;28;20193;-53
2022/01/05 11:38:06;;;;;;;4.45;1.75;;;6.10;90.80;;;;;;5006365;28;20884;-52
2022/01/05 11:40:34;;;;;;;3.85;1.73;;;6.10;91.70;;;;;;5009226;28;20205;-52
2022/01/05 11:43:05;;;;;;;3.80;1.85;;;6.20;92.30;;;;;;5009507;28;20183;-52
2022/01/05 11:45:39;;;;;;;7.10;2.80;;;6.30;92.20;;;;;;5015989;28;20592;-55
2022/01/05 11:48:43;;;;;;;3.17;1.50;;;6.00;92.50;;;;;;5011846;28;20235;-53
2022/01/05 11:51:08;;;;;;;5.82;1.85;;;5.80;92.50;;;;;;4998078;28;20215;-53
2022/01/05 11:53:34;;;;;;;4.87;2.03;;;6.10;93.40;;;;;;5012620;28;20656;-55
2022/01/05 11:56:01;;;;;;;3.17;1.77;;;6.10;93.80;;;;;;5007589;28;20187;-55
2022/01/05 11:58:33;;;;;;;3.72;1.60;;;6.20;92.90;;;;;;5007718;28;20207;-57
2022/01/05 12:01:17;;;;;;;2.85;2.08;;;5.90;93.10;;;;;;5009114;28;20242;-54
2022/01/05 12:03:57;;;;;;;2.78;1.77;;;6.10;93.20;;;;;;5008546;28;20183;-54
2022/01/05 12:06:25;;;;;;;3.03;1.83;;;6.20;92.70;;;;;;5007502;28;20300;-54
2022/01/05 12:08:56;;;;;;;4.07;2.83;;;6.40;92.10;;;;;;5007564;28;20262;-54
2022/01/05 12:11:42;;;;;;;5.10;2.35;;;6.60;92.30;;;;;;5012965;28;20210;-55
2022/01/05 12:14:30;;;;;;;2.88;2.17;;;6.60;92.60;;;;;;5002938;28;20604;-55
2022/01/05 12:16:59;;;;;;;5.28;1.65;;;6.90;92.30;;;;;;5005004;28;20205;-55
2022/01/05 12:19:26;;;;;;;4.80;2.10;;;7.40;92.30;;;;;;5007905;28;20245;-55
2022/01/05 12:21:54;;;;;;;5.43;2.05;;;7.20;91.60;;;;;;5012413;28;20198;-55
2022/01/05 12:24:20;;;;;;;2.97;2.10;;;7.10;91.30;;;;;;5011094;28;20266;-54
2022/01/05 12:27:15;;;;;;;5.97;2.50;;;7.30;91.30;;;;;;5007988;28;20218;-54
2022/01/05 12:29:43;;;;;;;5.05;3.03;;;7.10;91.00;;;;;;4995695;28;20565;-55
2022/01/05 12:32:08;;;;;;;4.57;2.42;;;7.00;91.60;;;;;;5013781;28;20191;-54
2022/01/05 12:34:57;;;;;;;3.47;1.67;;;6.80;90.80;;;;;;5011039;28;20206;-54
2022/01/05 12:37:46;;;;;;;7.07;2.50;;;6.70;91.30;;;;;;5004481;28;20541;-55
2022/01/05 12:40:23;;;;;;;3.97;1.77;;;6.80;91.00;;;;;;5007257;28;20734;-55
2022/01/05 12:43:09;;;;;;;3.78;2.28;;;7.00;91.00;;;;;;5011421;28;20285;-55
2022/01/05 12:45:58;;;;;;;4.45;1.70;;;6.60;91.40;;;;;;5008443;28;20644;-55
2022/01/05 12:48:33;;;;;;;4.05;1.95;;;6.50;91.40;;;;;;5008243;28;20586;-55
2022/01/05 12:51:17;;;;;;;8.23;2.20;;;6.60;91.40;;;;;;5010557;28;20224;-54
2022/01/05 12:53:52;;;;;;;3.15;1.73;;;6.50;91.40;;;;;;5005843;28;20648;-56
2022/01/05 12:56:23;;;;;;;1.98;1.70;;;6.20;90.70;;;;;;5012659;28;20186;-56
2022/01/05 12:58:51;;;;;;;4.07;1.65;;;6.20;91.10;;;;;;5008237;28;20219;-56
2022/01/05 13:01:21;;;;;;;5.13;1.77;;;6.10;91.30;;;;;;5007813;28;20182;-56
2022/01/05 13:03:47;;;;;;;6.72;1.92;;;6.30;91.90;;;;;;5006535;28;20524;-55
2022/01/05 13:06:15;;;;;;;3.63;1.58;;;6.20;92.10;;;;;;5004696;28;20568;-55